sensor_id;sensor_type;location;lat;lon;timestamp;pressure;altitude;pressure_sealevel;temperature;humidity
79331;BME280;68797;49.782;19.054;2024-03-02T00:04:44;96414.25;;;7.36;100.00
79331;BME280;68797;49.782;19.054;2024-03-02T00:07:36;96415.31;;;7.31;100.00
79331;BME280;68797;49.782;19.054;2024-03-02T00:11:20;96399.75;;;7.23;100.00
79331;BME280;68797;49.782;19.054;2024-03-02T00:14:10;96418.97;;;7.26;100.00
79331;BME280;68797;49.782;19.054;2024-03-02T00:17:25;96428.91;;;7.18;100.00
79331;BME280;68797;49.782;19.054;2024-03-02T00:20:26;96424.75;;;7.11;100.00
79331;BME280;68797;49.782;19.054;2024-03-02T00:27:15;96415.19;;;7.07;100.00
79331;BME280;68797;49.782;19.054;2024-03-02T00:31:24;96423.44;;;6.96;100.00
79331;BME280;68797;49.782;19.054;2024-03-02T00:34:38;96421.88;;;6.91;100.00
79331;BME280;68797;49.782;19.054;2024-03-02T00:37:47;96403.06;;;6.74;100.00
79331;BME280;68797;49.782;19.054;2024-03-02T00:40:48;96416.88;;;6.82;100.00
79331;BME280;68797;49.782;19.054;2024-03-02T00:43:47;96428.22;;;6.84;100.00
79331;BME280;68797;49.782;19.054;2024-03-02T00:46:35;96408.91;;;6.83;100.00
79331;BME280;68797;49.782;19.054;2024-03-02T00:49:23;96426.41;;;6.86;100.00
79331;BME280;68797;49.782;19.054;2024-03-02T00:52:05;96421.28;;;6.81;100.00
79331;BME280;68797;49.782;19.054;2024-03-02T00:54:34;96430.75;;;6.87;100.00
79331;BME280;68797;49.782;19.054;2024-03-02T00:57:02;96420.59;;;6.75;100.00
79331;BME280;68797;49.782;19.054;2024-03-02T00:59:31;96419.69;;;6.76;100.00
79331;BME280;68797;49.782;19.054;2024-03-02T01:02:00;96417.03;;;6.76;100.00
79331;BME280;68797;49.782;19.054;2024-03-02T01:04:30;96409.19;;;6.74;100.00
79331;BME280;68797;49.782;19.054;2024-03-02T01:06:57;96405.88;;;6.67;100.00
79331;BME280;68797;49.782;19.054;2024-03-02T01:09:25;96399.75;;;6.67;100.00
79331;BME280;68797;49.782;19.054;2024-03-02T01:11:54;96408.56;;;6.66;100.00
79331;BME280;68797;49.782;19.054;2024-03-02T01:14:24;96408.59;;;6.64;100.00
79331;BME280;68797;49.782;19.054;2024-03-02T01:16:50;96407.19;;;6.54;100.00
79331;BME280;68797;49.782;19.054;2024-03-02T01:19:19;96404.50;;;6.56;100.00
79331;BME280;68797;49.782;19.054;2024-03-02T01:21:46;96402.94;;;6.49;100.00
79331;BME280;68797;49.782;19.054;2024-03-02T01:24:15;96399.75;;;6.37;100.00
79331;BME280;68797;49.782;19.054;2024-03-02T01:26:42;96397.25;;;6.33;100.00
79331;BME280;68797;49.782;19.054;2024-03-02T01:29:10;96396.34;;;6.34;100.00
79331;BME280;68797;49.782;19.054;2024-03-02T01:31:36;96389.25;;;6.36;100.00
79331;BME280;68797;49.782;19.054;2024-03-02T01:34:07;96397.16;;;6.36;100.00
79331;BME280;68797;49.782;19.054;2024-03-02T01:36:42;96379.59;;;6.36;100.00
79331;BME280;68797;49.782;19.054;2024-03-02T01:39:10;96366.78;;;6.24;100.00
79331;BME280;68797;49.782;19.054;2024-03-02T01:41:38;96372.91;;;6.25;100.00
79331;BME280;68797;49.782;19.054;2024-03-02T01:44:06;96369.41;;;6.24;100.00
79331;BME280;68797;49.782;19.054;2024-03-02T01:46:34;96373.63;;;6.30;100.00
79331;BME280;68797;49.782;19.054;2024-03-02T01:49:04;96376.13;;;6.34;100.00
79331;BME280;68797;49.782;19.054;2024-03-02T01:51:30;96373.41;;;6.37;100.00
79331;BME280;68797;49.782;19.054;2024-03-02T01:53:57;96378.72;;;6.36;100.00
79331;BME280;68797;49.782;19.054;2024-03-02T01:56:25;96376.84;;;6.39;100.00
79331;BME280;68797;49.782;19.054;2024-03-02T01:58:51;96368.09;;;6.39;100.00
79331;BME280;68797;49.782;19.054;2024-03-02T02:01:19;96367.97;;;6.42;100.00
79331;BME280;68797;49.782;19.054;2024-03-02T02:03:47;96362.66;;;6.45;100.00
79331;BME280;68797;49.782;19.054;2024-03-02T02:06:14;96364.28;;;6.49;100.00
79331;BME280;68797;49.782;19.054;2024-03-02T02:08:43;96364.97;;;6.56;100.00
79331;BME280;68797;49.782;19.054;2024-03-02T02:14:31;96369.44;;;6.52;100.00
79331;BME280;68797;49.782;19.054;2024-03-02T02:16:58;96368.56;;;6.52;100.00
79331;BME280;68797;49.782;19.054;2024-03-02T02:19:28;96370.41;;;6.50;100.00
79331;BME280;68797;49.782;19.054;2024-03-02T02:21:56;96366.00;;;6.50;100.00
79331;BME280;68797;49.782;19.054;2024-03-02T02:24:32;96372.28;;;6.46;100.00
79331;BME280;68797;49.782;19.054;2024-03-02T02:26:59;96376.91;;;6.38;100.00
79331;BME280;68797;49.782;19.054;2024-03-02T02:29:27;96371.84;;;6.30;100.00
79331;BME280;68797;49.782;19.054;2024-03-02T02:31:54;96374.31;;;6.36;100.00
79331;BME280;68797;49.782;19.054;2024-03-02T02:34:24;96373.84;;;6.52;100.00
79331;BME280;68797;49.782;19.054;2024-03-02T02:36:50;96368.56;;;6.52;100.00
79331;BME280;68797;49.782;19.054;2024-03-02T02:39:19;96369.53;;;6.49;100.00
79331;BME280;68797;49.782;19.054;2024-03-02T02:41:47;96366.25;;;6.41;100.00
79331;BME280;68797;49.782;19.054;2024-03-02T02:44:14;96365.66;;;6.33;100.00
79331;BME280;68797;49.782;19.054;2024-03-02T02:46:41;96373.56;;;6.31;100.00
79331;BME280;68797;49.782;19.054;2024-03-02T02:49:21;96368.56;;;6.24;100.00
79331;BME280;68797;49.782;19.054;2024-03-02T02:51:51;96372.03;;;6.24;100.00
79331;BME280;68797;49.782;19.054;2024-03-02T02:54:20;96373.66;;;6.28;100.00
79331;BME280;68797;49.782;19.054;2024-03-02T02:56:48;96365.91;;;6.24;100.00
79331;BME280;68797;49.782;19.054;2024-03-02T02:59:21;96361.72;;;6.17;100.00
79331;BME280;68797;49.782;19.054;2024-03-02T03:01:48;96359.00;;;6.20;100.00
79331;BME280;68797;49.782;19.054;2024-03-02T03:04:17;96380.75;;;6.26;100.00
79331;BME280;68797;49.782;19.054;2024-03-02T03:06:45;96384.16;;;6.30;100.00
79331;BME280;68797;49.782;19.054;2024-03-02T03:09:13;96380.63;;;6.31;100.00
79331;BME280;68797;49.782;19.054;2024-03-02T03:11:43;96384.25;;;6.27;100.00
79331;BME280;68797;49.782;19.054;2024-03-02T03:14:17;96382.59;;;6.24;100.00
79331;BME280;68797;49.782;19.054;2024-03-02T03:16:46;96388.63;;;6.28;100.00
79331;BME280;68797;49.782;19.054;2024-03-02T03:19:14;96383.44;;;6.25;100.00
79331;BME280;68797;49.782;19.054;2024-03-02T03:21:44;96385.88;;;6.32;100.00
79331;BME280;68797;49.782;19.054;2024-03-02T03:24:15;96381.53;;;6.30;100.00
79331;BME280;68797;49.782;19.054;2024-03-02T03:26:42;96384.09;;;6.33;100.00
79331;BME280;68797;49.782;19.054;2024-03-02T03:29:09;96388.19;;;6.41;100.00
79331;BME280;68797;49.782;19.054;2024-03-02T03:31:36;96384.00;;;6.36;100.00
79331;BME280;68797;49.782;19.054;2024-03-02T03:34:06;96388.25;;;6.40;100.00
79331;BME280;68797;49.782;19.054;2024-03-02T03:36:33;96385.88;;;6.32;100.00
79331;BME280;68797;49.782;19.054;2024-03-02T03:39:02;96385.72;;;6.37;100.00
79331;BME280;68797;49.782;19.054;2024-03-02T03:41:29;96383.09;;;6.37;100.00
79331;BME280;68797;49.782;19.054;2024-03-02T03:43:57;96378.47;;;6.45;100.00
79331;BME280;68797;49.782;19.054;2024-03-02T03:46:25;96373.56;;;6.31;100.00
79331;BME280;68797;49.782;19.054;2024-03-02T03:48:54;96373.31;;;6.40;100.00
79331;BME280;68797;49.782;19.054;2024-03-02T03:51:23;96374.09;;;6.44;100.00
79331;BME280;68797;49.782;19.054;2024-03-02T03:53:50;96373.25;;;6.44;100.00
79331;BME280;68797;49.782;19.054;2024-03-02T03:56:21;96364.47;;;6.43;100.00
79331;BME280;68797;49.782;19.054;2024-03-02T03:58:49;96367.44;;;6.31;100.00
79331;BME280;68797;49.782;19.054;2024-03-02T04:01:17;96374.38;;;6.35;100.00
79331;BME280;68797;49.782;19.054;2024-03-02T04:03:43;96377.97;;;6.32;100.00
79331;BME280;68797;49.782;19.054;2024-03-02T04:06:10;96376.13;;;6.34;100.00
79331;BME280;68797;49.782;19.054;2024-03-02T04:08:38;96372.59;;;6.35;100.00
79331;BME280;68797;49.782;19.054;2024-03-02T04:11:05;96367.53;;;6.28;100.00
79331;BME280;68797;49.782;19.054;2024-03-02T04:13:33;96366.78;;;6.24;100.00
79331;BME280;68797;49.782;19.054;2024-03-02T04:16:04;96360.69;;;6.22;100.00
79331;BME280;68797;49.782;19.054;2024-03-02T04:18:33;96357.97;;;6.25;100.00
79331;BME280;68797;49.782;19.054;2024-03-02T04:21:00;96360.50;;;6.28;100.00
79331;BME280;68797;49.782;19.054;2024-03-02T04:23:30;96362.38;;;6.25;100.00
79331;BME280;68797;49.782;19.054;2024-03-02T04:25:59;96359.94;;;6.17;100.00
79331;BME280;68797;49.782;19.054;2024-03-02T04:28:29;96360.81;;;6.18;100.00
79331;BME280;68797;49.782;19.054;2024-03-02T04:30:57;96367.03;;;6.15;100.00
79331;BME280;68797;49.782;19.054;2024-03-02T04:33:24;96361.91;;;6.10;100.00
79331;BME280;68797;49.782;19.054;2024-03-02T04:35:52;96368.06;;;6.09;100.00
79331;BME280;68797;49.782;19.054;2024-03-02T04:38:19;96370.63;;;6.13;100.00
79331;BME280;68797;49.782;19.054;2024-03-02T04:40:46;96375.94;;;6.11;100.00
79331;BME280;68797;49.782;19.054;2024-03-02T04:43:12;96372.44;;;6.10;100.00
79331;BME280;68797;49.782;19.054;2024-03-02T04:45:43;96373.31;;;6.11;100.00
79331;BME280;68797;49.782;19.054;2024-03-02T04:48:09;96369.16;;;6.02;100.00
79331;BME280;68797;49.782;19.054;2024-03-02T04:50:38;96375.34;;;6.01;100.00
79331;BME280;68797;49.782;19.054;2024-03-02T04:53:06;96378.88;;;6.00;100.00
79331;BME280;68797;49.782;19.054;2024-03-02T04:55:47;96377.06;;;6.02;100.00
79331;BME280;68797;49.782;19.054;2024-03-02T04:58:33;96370.06;;;6.01;100.00
79331;BME280;68797;49.782;19.054;2024-03-02T05:01:06;96373.66;;;5.99;100.00
79331;BME280;68797;49.782;19.054;2024-03-02T05:03:37;96379.69;;;6.02;100.00
79331;BME280;68797;49.782;19.054;2024-03-02T05:06:05;96381.56;;;5.99;100.00
79331;BME280;68797;49.782;19.054;2024-03-02T05:08:32;96388.66;;;5.95;100.00
79331;BME280;68797;49.782;19.054;2024-03-02T05:11:00;96379.16;;;5.90;100.00
79331;BME280;68797;49.782;19.054;2024-03-02T05:13:49;96392.97;;;5.98;100.00
79331;BME280;68797;49.782;19.054;2024-03-02T05:16:16;96384.34;;;5.93;100.00
79331;BME280;68797;49.782;19.054;2024-03-02T05:18:43;96400.16;;;5.93;100.00
79331;BME280;68797;49.782;19.054;2024-03-02T05:21:09;96387.97;;;5.87;100.00
79331;BME280;68797;49.782;19.054;2024-03-02T05:23:39;96393.09;;;5.93;100.00
79331;BME280;68797;49.782;19.054;2024-03-02T05:26:06;96391.19;;;5.98;100.00
79331;BME280;68797;49.782;19.054;2024-03-02T05:28:34;96387.50;;;6.05;100.00
79331;BME280;68797;49.782;19.054;2024-03-02T05:31:06;96396.31;;;6.04;100.00
79331;BME280;68797;49.782;19.054;2024-03-02T05:33:34;96395.31;;;6.08;100.00
79331;BME280;68797;49.782;19.054;2024-03-02T05:36:04;96404.13;;;6.07;100.00
79331;BME280;68797;49.782;19.054;2024-03-02T05:41:57;96408.09;;;6.22;100.00
79331;BME280;68797;49.782;19.054;2024-03-02T05:44:31;96404.63;;;6.20;100.00
79331;BME280;68797;49.782;19.054;2024-03-02T05:46:59;96404.81;;;6.14;100.00
79331;BME280;68797;49.782;19.054;2024-03-02T05:49:29;96416.69;;;6.29;100.00
79331;BME280;68797;49.782;19.054;2024-03-02T05:51:56;96419.81;;;6.41;100.00
79331;BME280;68797;49.782;19.054;2024-03-02T05:54:23;96420.78;;;6.39;100.00
79331;BME280;68797;49.782;19.054;2024-03-02T05:56:50;96420.78;;;6.39;100.00
79331;BME280;68797;49.782;19.054;2024-03-02T05:59:17;96428.69;;;6.39;100.00
79331;BME280;68797;49.782;19.054;2024-03-02T06:01:46;96427.91;;;6.35;100.00
79331;BME280;68797;49.782;19.054;2024-03-02T06:04:16;96431.38;;;6.37;100.00
79331;BME280;68797;49.782;19.054;2024-03-02T06:06:42;96427.16;;;6.32;100.00
79331;BME280;68797;49.782;19.054;2024-03-02T06:09:11;96435.06;;;6.32;100.00
79331;BME280;68797;49.782;19.054;2024-03-02T06:11:40;96431.56;;;6.30;100.00
79331;BME280;68797;49.782;19.054;2024-03-02T06:14:12;96436.13;;;6.25;100.00
79331;BME280;68797;49.782;19.054;2024-03-02T06:16:39;96433.94;;;6.39;100.00
79331;BME280;68797;49.782;19.054;2024-03-02T06:19:08;96443.84;;;6.31;100.00
79331;BME280;68797;49.782;19.054;2024-03-02T06:21:35;96437.44;;;6.39;100.00
79331;BME280;68797;49.782;19.054;2024-03-02T06:24:02;96446.88;;;6.48;100.00
79331;BME280;68797;49.782;19.054;2024-03-02T06:26:29;96439.91;;;6.46;100.00
79331;BME280;68797;49.782;19.054;2024-03-02T06:29:02;96437.19;;;6.49;100.00
79331;BME280;68797;49.782;19.054;2024-03-02T06:31:30;96450.16;;;6.56;100.00
79331;BME280;68797;49.782;19.054;2024-03-02T06:33:57;96434.25;;;6.59;100.00
79331;BME280;68797;49.782;19.054;2024-03-02T06:36:23;96441.84;;;6.70;100.00
79331;BME280;68797;49.782;19.054;2024-03-02T06:38:51;96437.28;;;6.75;100.00
79331;BME280;68797;49.782;19.054;2024-03-02T06:41:20;96437.56;;;6.66;100.00
79331;BME280;68797;49.782;19.054;2024-03-02T06:43:47;96439.03;;;6.75;100.00
79331;BME280;68797;49.782;19.054;2024-03-02T06:46:15;96440.59;;;6.82;100.00
79331;BME280;68797;49.782;19.054;2024-03-02T06:48:44;96444.09;;;6.82;100.00
79331;BME280;68797;49.782;19.054;2024-03-02T06:51:11;96450.00;;;6.90;100.00
79331;BME280;68797;49.782;19.054;2024-03-02T06:53:39;96445.91;;;6.80;100.00
79331;BME280;68797;49.782;19.054;2024-03-02T06:56:07;96450.22;;;6.83;100.00
79331;BME280;68797;49.782;19.054;2024-03-02T06:58:40;96456.19;;;6.89;100.00
79331;BME280;68797;49.782;19.054;2024-03-02T07:01:06;96451.63;;;6.94;100.00
79331;BME280;68797;49.782;19.054;2024-03-02T07:03:35;96448.88;;;6.99;100.00
79331;BME280;68797;49.782;19.054;2024-03-02T07:06:02;96455.66;;;7.06;100.00
79331;BME280;68797;49.782;19.054;2024-03-02T07:08:29;96460.94;;;7.06;100.00
79331;BME280;68797;49.782;19.054;2024-03-02T07:11:01;96453.44;;;7.22;100.00
79331;BME280;68797;49.782;19.054;2024-03-02T07:13:37;96462.22;;;7.22;100.00
79331;BME280;68797;49.782;19.054;2024-03-02T07:16:06;96459.88;;;7.40;100.00
79331;BME280;68797;49.782;19.054;2024-03-02T07:18:55;96467.84;;;7.38;100.00
79331;BME280;68797;49.782;19.054;2024-03-02T07:21:24;96462.22;;;7.49;100.00
79331;BME280;68797;49.782;19.054;2024-03-02T07:23:53;96468.00;;;7.60;100.00
79331;BME280;68797;49.782;19.054;2024-03-02T07:26:34;96461.81;;;7.61;100.00
79331;BME280;68797;49.782;19.054;2024-03-02T07:29:02;96463.03;;;7.77;100.00
79331;BME280;68797;49.782;19.054;2024-03-02T07:31:30;96471.47;;;7.89;100.00
79331;BME280;68797;49.782;19.054;2024-03-02T07:33:57;96469.81;;;7.84;100.00
79331;BME280;68797;49.782;19.054;2024-03-02T07:36:25;96474.19;;;7.85;100.00
79331;BME280;68797;49.782;19.054;2024-03-02T07:38:54;96468.53;;;7.96;100.00
79331;BME280;68797;49.782;19.054;2024-03-02T07:41:22;96458.66;;;8.03;100.00
79331;BME280;68797;49.782;19.054;2024-03-02T07:43:56;96465.44;;;8.10;100.00
79331;BME280;68797;49.782;19.054;2024-03-02T07:46:26;96464.53;;;8.11;100.00
79331;BME280;68797;49.782;19.054;2024-03-02T07:48:58;96465.34;;;8.13;100.00
79331;BME280;68797;49.782;19.054;2024-03-02T07:51:25;96470.63;;;8.13;100.00
79331;BME280;68797;49.782;19.054;2024-03-02T07:53:56;96479.94;;;8.23;100.00
79331;BME280;68797;49.782;19.054;2024-03-02T07:56:23;96471.66;;;8.34;100.00
79331;BME280;68797;49.782;19.054;2024-03-02T07:58:50;96474.94;;;8.40;100.00
79331;BME280;68797;49.782;19.054;2024-03-02T08:01:18;96479.09;;;8.48;100.00
79331;BME280;68797;49.782;19.054;2024-03-02T08:03:47;96471.72;;;8.57;100.00
79331;BME280;68797;49.782;19.054;2024-03-02T08:06:17;96477.63;;;8.64;100.00
79331;BME280;68797;49.782;19.054;2024-03-02T08:08:47;96475.69;;;8.69;100.00
79331;BME280;68797;49.782;19.054;2024-03-02T08:11:18;96485.00;;;8.79;100.00
79331;BME280;68797;49.782;19.054;2024-03-02T08:13:45;96477.81;;;8.83;100.00
79331;BME280;68797;49.782;19.054;2024-03-02T08:16:14;96478.00;;;8.78;100.00
79331;BME280;68797;49.782;19.054;2024-03-02T08:18:51;96480.31;;;8.86;100.00
79331;BME280;68797;49.782;19.054;2024-03-02T08:21:20;96480.22;;;8.89;100.00
79331;BME280;68797;49.782;19.054;2024-03-02T08:23:50;96480.16;;;8.90;100.00
79331;BME280;68797;49.782;19.054;2024-03-02T08:26:17;96476.81;;;8.85;100.00
79331;BME280;68797;49.782;19.054;2024-03-02T08:28:46;96467.97;;;8.86;100.00
79331;BME280;68797;49.782;19.054;2024-03-02T08:31:15;96466.69;;;8.96;100.00
79331;BME280;68797;49.782;19.054;2024-03-02T08:33:43;96491.31;;;9.22;100.00
79331;BME280;68797;49.782;19.054;2024-03-02T08:36:09;96486.56;;;9.30;100.00
79331;BME280;68797;49.782;19.054;2024-03-02T08:38:39;96475.16;;;9.28;100.00
79331;BME280;68797;49.782;19.054;2024-03-02T08:41:07;96479.03;;;9.19;100.00
79331;BME280;68797;49.782;19.054;2024-03-02T08:43:40;96469.00;;;9.27;100.00
79331;BME280;68797;49.782;19.054;2024-03-02T08:46:10;96472.22;;;9.36;100.00
79331;BME280;68797;49.782;19.054;2024-03-02T08:48:43;96480.84;;;9.41;100.00
79331;BME280;68797;49.782;19.054;2024-03-02T08:51:14;96479.81;;;9.45;100.00
79331;BME280;68797;49.782;19.054;2024-03-02T08:53:42;96484.75;;;9.54;100.00
79331;BME280;68797;49.782;19.054;2024-03-02T08:56:11;96485.63;;;9.53;100.00
79331;BME280;68797;49.782;19.054;2024-03-02T08:58:41;96486.47;;;9.55;100.00
79331;BME280;68797;49.782;19.054;2024-03-02T09:01:11;96483.50;;;9.63;99.31
79331;BME280;68797;49.782;19.054;2024-03-02T09:03:45;96488.56;;;9.69;97.47
79331;BME280;68797;49.782;19.054;2024-03-02T09:06:14;96480.66;;;9.67;99.89
79331;BME280;68797;49.782;19.054;2024-03-02T09:08:43;96493.66;;;9.73;99.79
79331;BME280;68797;49.782;19.054;2024-03-02T09:11:12;96478.63;;;9.74;100.00
79331;BME280;68797;49.782;19.054;2024-03-02T09:13:39;96490.50;;;9.85;100.00
79331;BME280;68797;49.782;19.054;2024-03-02T09:16:07;96485.19;;;9.85;99.99
79331;BME280;68797;49.782;19.054;2024-03-02T09:18:37;96479.78;;;9.88;99.24
79331;BME280;68797;49.782;19.054;2024-03-02T09:21:06;96488.53;;;9.90;99.59
79331;BME280;68797;49.782;19.054;2024-03-02T09:23:35;96497.81;;;10.01;99.55
79331;BME280;68797;49.782;19.054;2024-03-02T09:26:03;96493.53;;;9.98;97.42
79331;BME280;68797;49.782;19.054;2024-03-02T09:28:32;96493.09;;;10.07;95.64
79331;BME280;68797;49.782;19.054;2024-03-02T09:31:00;96496.09;;;10.00;96.15
79331;BME280;68797;49.782;19.054;2024-03-02T09:33:33;96489.81;;;10.02;94.54
79331;BME280;68797;49.782;19.054;2024-03-02T09:36:03;96495.75;;;10.07;97.58
79331;BME280;68797;49.782;19.054;2024-03-02T09:38:35;96499.25;;;9.87;99.65
79331;BME280;68797;49.782;19.054;2024-03-02T09:41:02;96516.31;;;10.02;100.00
79331;BME280;68797;49.782;19.054;2024-03-02T09:43:32;96502.13;;;10.03;99.30
79331;BME280;68797;49.782;19.054;2024-03-02T09:45:59;96511.56;;;10.10;98.55
79331;BME280;68797;49.782;19.054;2024-03-02T09:48:28;96501.69;;;10.14;97.96
79331;BME280;68797;49.782;19.054;2024-03-02T09:51:11;96509.06;;;10.28;96.41
79331;BME280;68797;49.782;19.054;2024-03-02T09:53:41;96514.66;;;10.22;95.35
79331;BME280;68797;49.782;19.054;2024-03-02T09:56:14;96504.25;;;10.15;95.28
79331;BME280;68797;49.782;19.054;2024-03-02T09:58:51;96532.31;;;10.21;95.60
79331;BME280;68797;49.782;19.054;2024-03-02T10:01:23;96518.44;;;10.14;96.33
79331;BME280;68797;49.782;19.054;2024-03-02T10:04:00;96523.41;;;10.02;96.29
79331;BME280;68797;49.782;19.054;2024-03-02T10:06:28;96538.22;;;10.06;96.21
79331;BME280;68797;49.782;19.054;2024-03-02T10:09:02;96518.72;;;9.86;100.00
79331;BME280;68797;49.782;19.054;2024-03-02T10:11:32;96519.34;;;9.93;100.00
79331;BME280;68797;49.782;19.054;2024-03-02T10:14:17;96524.84;;;9.88;100.00
79331;BME280;68797;49.782;19.054;2024-03-02T10:17:26;96529.94;;;9.71;99.69
79331;BME280;68797;49.782;19.054;2024-03-02T10:20:42;96536.94;;;9.50;100.00
79331;BME280;68797;49.782;19.054;2024-03-02T10:23:23;96533.91;;;9.38;100.00
79331;BME280;68797;49.782;19.054;2024-03-02T10:25:57;96530.00;;;9.48;100.00
79331;BME280;68797;49.782;19.054;2024-03-02T10:28:26;96518.03;;;9.38;100.00
79331;BME280;68797;49.782;19.054;2024-03-02T10:31:02;96529.69;;;9.34;100.00
79331;BME280;68797;49.782;19.054;2024-03-02T10:33:30;96535.72;;;9.37;100.00
79331;BME280;68797;49.782;19.054;2024-03-02T10:36:25;96533.63;;;9.45;100.00
79331;BME280;68797;49.782;19.054;2024-03-02T10:38:56;96531.97;;;9.43;100.00
79331;BME280;68797;49.782;19.054;2024-03-02T10:41:35;96523.16;;;9.19;100.00
79331;BME280;68797;49.782;19.054;2024-03-02T10:44:08;96514.16;;;9.24;100.00
79331;BME280;68797;49.782;19.054;2024-03-02T10:46:38;96522.94;;;9.25;100.00
79331;BME280;68797;49.782;19.054;2024-03-02T10:49:14;96523.63;;;9.30;100.00
79331;BME280;68797;49.782;19.054;2024-03-02T10:51:43;96529.84;;;9.29;100.00
79331;BME280;68797;49.782;19.054;2024-03-02T10:54:34;96514.44;;;9.17;100.00
79331;BME280;68797;49.782;19.054;2024-03-02T10:57:26;96517.19;;;9.14;100.00
79331;BME280;68797;49.782;19.054;2024-03-02T11:13:17;96525.94;;;9.16;100.00
79331;BME280;68797;49.782;19.054;2024-03-02T11:38:12;96500.91;;;9.24;100.00
79331;BME280;68797;49.782;19.054;2024-03-02T11:42:48;96508.59;;;9.30;100.00
79331;BME280;68797;49.782;19.054;2024-03-02T11:46:22;96515.59;;;9.33;100.00
79331;BME280;68797;49.782;19.054;2024-03-02T11:50:14;96513.38;;;9.44;100.00
79331;BME280;68797;49.782;19.054;2024-03-02T11:53:58;96493.56;;;9.54;100.00
79331;BME280;68797;49.782;19.054;2024-03-02T11:58:06;96511.81;;;9.60;100.00
79331;BME280;68797;49.782;19.054;2024-03-02T12:07:30;96492.34;;;9.61;100.00
79331;BME280;68797;49.782;19.054;2024-03-02T12:12:02;96499.22;;;9.67;100.00
79331;BME280;68797;49.782;19.054;2024-03-02T12:14:38;96504.25;;;9.73;100.00
79331;BME280;68797;49.782;19.054;2024-03-02T12:17:12;96491.25;;;9.67;100.00
79331;BME280;68797;49.782;19.054;2024-03-02T12:19:53;96494.56;;;9.72;100.00
79331;BME280;68797;49.782;19.054;2024-03-02T12:22:24;96485.75;;;9.72;100.00
79331;BME280;68797;49.782;19.054;2024-03-02T12:24:58;96502.94;;;9.61;100.00
79331;BME280;68797;49.782;19.054;2024-03-02T12:27:40;96501.00;;;9.67;100.00
79331;BME280;68797;49.782;19.054;2024-03-02T12:30:18;96480.25;;;9.56;100.00
79331;BME280;68797;49.782;19.054;2024-03-02T12:32:58;96483.91;;;9.52;100.00
79331;BME280;68797;49.782;19.054;2024-03-02T12:35:49;96490.56;;;9.62;100.00
79331;BME280;68797;49.782;19.054;2024-03-02T12:38:25;96483.00;;;9.53;100.00
79331;BME280;68797;49.782;19.054;2024-03-02T12:41:08;96490.06;;;9.52;100.00
79331;BME280;68797;49.782;19.054;2024-03-02T12:43:36;96503.09;;;9.58;100.00
79331;BME280;68797;49.782;19.054;2024-03-02T12:46:15;96496.22;;;9.53;100.00
79331;BME280;68797;49.782;19.054;2024-03-02T12:48:47;96480.97;;;9.38;100.00
79331;BME280;68797;49.782;19.054;2024-03-02T12:51:36;96490.03;;;9.54;100.00
79331;BME280;68797;49.782;19.054;2024-03-02T12:54:17;96496.56;;;9.67;100.00
79331;BME280;68797;49.782;19.054;2024-03-02T12:56:53;96485.75;;;9.72;100.00
79331;BME280;68797;49.782;19.054;2024-03-02T12:59:25;96490.91;;;9.76;100.00
79331;BME280;68797;49.782;19.054;2024-03-02T13:01:58;96484.84;;;9.73;100.00
79331;BME280;68797;49.782;19.054;2024-03-02T13:04:33;96476.16;;;9.69;100.00
79331;BME280;68797;49.782;19.054;2024-03-02T13:07:08;96474.19;;;9.74;100.00
79331;BME280;68797;49.782;19.054;2024-03-02T13:09:42;96480.81;;;9.84;100.00
79331;BME280;68797;49.782;19.054;2024-03-02T13:12:17;96464.81;;;9.87;100.00
79331;BME280;68797;49.782;19.054;2024-03-02T13:14:53;96476.78;;;9.96;100.00
79331;BME280;68797;49.782;19.054;2024-03-02T13:17:24;96455.13;;;9.86;100.00
79331;BME280;68797;49.782;19.054;2024-03-02T13:19:58;96468.66;;;10.01;100.00
79331;BME280;68797;49.782;19.054;2024-03-02T13:22:32;96462.69;;;9.96;100.00
79331;BME280;68797;49.782;19.054;2024-03-02T13:25:12;96451.38;;;9.92;100.00
79331;BME280;68797;49.782;19.054;2024-03-02T13:27:47;96458.59;;;9.88;100.00
79331;BME280;68797;49.782;19.054;2024-03-02T13:30:26;96455.81;;;9.92;100.00
79331;BME280;68797;49.782;19.054;2024-03-02T13:32:58;96461.50;;;10.03;100.00
79331;BME280;68797;49.782;19.054;2024-03-02T13:35:31;96456.47;;;9.97;100.00
79331;BME280;68797;49.782;19.054;2024-03-02T13:38:03;96440.75;;;9.92;100.00
79331;BME280;68797;49.782;19.054;2024-03-02T13:40:49;96458.84;;;10.03;100.00
79331;BME280;68797;49.782;19.054;2024-03-02T13:43:33;96448.41;;;10.00;100.00
79331;BME280;68797;49.782;19.054;2024-03-02T13:46:03;96455.22;;;10.05;100.00
79331;BME280;68797;49.782;19.054;2024-03-02T13:48:45;96456.81;;;10.09;100.00
79331;BME280;68797;49.782;19.054;2024-03-02T13:51:16;96455.75;;;10.13;100.00
79331;BME280;68797;49.782;19.054;2024-03-02T13:53:50;96460.91;;;10.16;100.00
79331;BME280;68797;49.782;19.054;2024-03-02T13:56:21;96459.91;;;10.19;100.00
79331;BME280;68797;49.782;19.054;2024-03-02T13:59:16;96463.28;;;10.24;100.00
79331;BME280;68797;49.782;19.054;2024-03-02T14:01:44;96464.28;;;10.22;100.00
79331;BME280;68797;49.782;19.054;2024-03-02T14:04:13;96462.56;;;10.19;100.00
79331;BME280;68797;49.782;19.054;2024-03-02T14:06:43;96464.00;;;10.28;100.00
79331;BME280;68797;49.782;19.054;2024-03-02T14:09:21;96461.09;;;10.34;100.00
79331;BME280;68797;49.782;19.054;2024-03-02T14:11:57;96454.13;;;10.31;100.00
79331;BME280;68797;49.782;19.054;2024-03-02T14:14:39;96464.94;;;10.27;100.00
79331;BME280;68797;49.782;19.054;2024-03-02T14:17:12;96458.84;;;10.25;100.00
79331;BME280;68797;49.782;19.054;2024-03-02T14:19:49;96466.00;;;10.23;100.00
79331;BME280;68797;49.782;19.054;2024-03-02T14:22:26;96478.47;;;10.19;100.00
79331;BME280;68797;49.782;19.054;2024-03-02T14:24:56;96476.97;;;10.13;100.00